Time;durP1;ratioP1;P1;durP2;ratioP2;P2;SDS_P1;SDS_P2;PMS_P1;PMS_P2;Temp;Humidity;BMP_temperature;BMP_pressure;BME280_temperature;BME280_humidity;BME280_pressure;Samples;Min_cycle;Max_cycle;Signal;HPM_P1;HPM_P2
2022/05/11 00:01:46;;;;;;;13.93;8.35;;;384.70;2329.60;;;;;;4865027;29;20029;-84
2022/05/11 00:04:12;;;;;;;14.63;8.50;;;384.70;2329.60;;;;;;4865435;29;20028;-85
2022/05/11 00:06:39;;;;;;;12.70;8.77;;;384.70;2329.60;;;;;;4864511;29;20029;-87
2022/05/11 00:09:07;;;;;;;14.25;7.60;;;384.60;2329.60;;;;;;4865186;29;20025;-86
2022/05/11 00:11:34;;;;;;;12.18;7.97;;;384.60;2329.60;;;;;;4864873;29;20036;-85
2022/05/11 00:14:01;;;;;;;9.85;7.53;;;384.60;2329.60;;;;;;4864793;29;20033;-85
2022/05/11 00:16:28;;;;;;;9.45;7.85;;;384.60;2329.60;;;;;;4865521;29;20033;-86
2022/05/11 00:18:54;;;;;;;10.15;7.68;;;384.60;2329.60;;;;;;4865248;29;20025;-85
2022/05/11 00:21:29;;;;;;;12.85;8.50;;;384.60;2329.60;;;;;;4872449;29;20056;-86
2022/05/11 00:23:59;;;;;;;10.13;8.32;;;384.40;2329.60;;;;;;4883320;29;20104;-84
2022/05/11 00:26:28;;;;;;;11.35;8.43;;;384.40;2329.60;;;;;;4898675;29;20032;-85
2022/05/11 00:28:54;;;;;;;11.10;8.82;;;384.40;2329.60;;;;;;4883867;29;20043;-84
2022/05/11 00:31:20;;;;;;;11.95;8.82;;;384.00;2329.60;;;;;;4887349;29;20032;-86
2022/05/11 00:33:46;;;;;;;17.40;10.10;;;359.30;2329.60;;;;;;4902087;29;20530;-85
2022/05/11 00:36:13;;;;;;;13.75;9.48;;;359.30;2329.60;;;;;;4914932;29;20028;-84
2022/05/11 00:38:40;;;;;;;15.52;9.88;;;359.30;2329.60;;;;;;4883229;29;20457;-86
2022/05/11 00:41:06;;;;;;;13.43;9.43;;;384.10;2329.60;;;;;;4895002;29;20031;-84
2022/05/11 00:43:52;;;;;;;13.38;10.05;;;384.00;2329.60;;;;;;4902139;29;20467;-85
2022/05/11 00:46:42;;;;;;;17.38;10.02;;;384.10;2329.60;;;;;;4901482;29;20521;-85
2022/05/11 00:49:36;;;;;;;13.73;10.05;;;384.10;2329.60;;;;;;4917243;29;20036;-84
2022/05/11 00:52:23;;;;;;;14.00;9.88;;;384.10;2329.60;;;;;;4901969;29;20099;-84
2022/05/11 00:55:23;;;;;;;14.90;9.25;;;384.00;2329.60;;;;;;4898393;29;20029;-87
2022/05/11 00:58:07;;;;;;;16.50;10.10;;;359.10;2329.60;;;;;;4882807;29;20036;-88
2022/05/11 01:00:34;;;;;;;13.88;9.35;;;359.00;2329.60;;;;;;4882692;29;20483;-85
2022/05/11 01:03:10;;;;;;;13.32;9.10;;;358.90;2329.60;;;;;;4882766;29;20566;-85
2022/05/11 01:05:42;;;;;;;12.10;9.77;;;358.90;2329.60;;;;;;4882559;29;20044;-85
2022/05/11 01:08:08;;;;;;;14.32;9.82;;;359.00;2329.60;;;;;;4882787;29;20029;-88
2022/05/11 01:10:35;;;;;;;13.27;8.60;;;359.10;2329.60;;;;;;4882261;29;20384;-87
2022/05/11 01:13:05;;;;;;;11.80;8.05;;;384.10;2329.60;;;;;;4900510;29;20032;-84
2022/05/11 01:15:33;;;;;;;13.27;9.30;;;359.10;2329.60;;;;;;4901164;29;20036;-86
2022/05/11 01:18:01;;;;;;;12.57;9.40;;;359.20;2329.60;;;;;;4900968;29;20040;-86
2022/05/11 01:20:33;;;;;;;10.93;9.00;;;359.00;2329.60;;;;;;4916256;29;20115;-87
2022/05/11 01:23:21;;;;;;;12.85;9.45;;;359.00;2329.60;;;;;;4901480;29;20044;-86
2022/05/11 01:25:50;;;;;;;12.93;10.00;;;359.00;2329.60;;;;;;4916669;29;20103;-85
2022/05/11 01:28:24;;;;;;;16.60;9.23;;;358.90;2329.60;;;;;;4917279;29;20028;-85
2022/05/11 01:30:54;;;;;;;11.90;9.32;;;358.90;2329.60;;;;;;4900327;29;20036;-86
2022/05/11 01:33:25;;;;;;;14.82;8.70;;;358.80;2329.60;;;;;;4900826;29;20067;-86
2022/05/11 01:36:16;;;;;;;11.65;8.70;;;358.90;2329.60;;;;;;4900768;29;20031;-85
2022/05/11 01:38:56;;;;;;;12.55;9.30;;;358.90;2329.60;;;;;;4901115;29;20024;-85
2022/05/11 01:42:20;;;;;;;15.93;8.27;;;358.90;2329.60;;;;;;4901085;29;20031;-85
2022/05/11 01:44:46;;;;;;;13.63;9.25;;;358.90;2329.60;;;;;;4900314;29;20055;-86
2022/05/11 01:47:12;;;;;;;13.48;9.85;;;358.70;2329.60;;;;;;4901224;29;20032;-85
2022/05/11 01:49:39;;;;;;;10.65;8.50;;;358.60;2329.60;;;;;;4900637;29;20118;-86
2022/05/11 01:52:06;;;;;;;13.13;9.05;;;358.50;2329.60;;;;;;4884886;29;20032;-85
2022/05/11 01:54:32;;;;;;;12.73;7.97;;;358.60;2329.60;;;;;;4885265;29;20083;-87
2022/05/11 01:57:00;;;;;;;12.77;8.75;;;358.80;2329.60;;;;;;4888587;29;20423;-85
2022/05/11 01:59:33;;;;;;;12.20;8.90;;;358.70;2329.60;;;;;;4896366;29;20044;-86
2022/05/11 02:02:00;;;;;;;12.25;9.93;;;358.50;2329.60;;;;;;4903582;29;20033;-85
2022/05/11 02:10:44;;;;;;;9.93;8.13;;;358.50;2329.60;;;;;;4898762;29;20056;-85
2022/05/11 02:13:10;;;;;;;13.52;9.45;;;358.50;2329.60;;;;;;4877100;29;20039;-85
2022/05/11 02:15:36;;;;;;;11.35;9.05;;;358.40;2329.60;;;;;;4886966;29;20024;-85
2022/05/11 02:18:08;;;;;;;18.33;10.05;;;358.40;2329.60;;;;;;4900463;29;20032;-86
2022/05/11 02:20:34;;;;;;;13.50;9.23;;;333.70;2329.60;;;;;;4899997;29;20133;-86
2022/05/11 02:23:31;;;;;;;16.08;9.10;;;333.70;2329.60;;;;;;4900629;29;20032;-86
2022/05/11 02:26:06;;;;;;;9.73;8.23;;;358.40;2329.60;;;;;;4899911;29;20060;-85
2022/05/11 02:28:35;;;;;;;11.55;8.52;;;358.50;2329.60;;;;;;4900674;29;20084;-86
2022/05/11 02:31:23;;;;;;;;;;;;;;;;;;;;;
2022/05/11 02:34:04;;;;;;;11.95;8.18;;;358.60;2329.60;;;;;;4891849;29;20050;-85
2022/05/11 03:00:05;;;;;;;14.57;9.00;;;333.60;2329.60;;;;;;4901618;29;20080;-87
2022/05/11 03:02:31;;;;;;;15.05;9.20;;;333.70;2329.60;;;;;;4869238;29;20083;-87
2022/05/11 03:04:58;;;;;;;15.15;9.82;;;358.60;2329.60;;;;;;4885166;29;20078;-84
2022/05/11 03:07:24;;;;;;;12.70;9.00;;;333.70;2329.60;;;;;;4869551;29;20052;-86
2022/05/11 03:09:54;;;;;;;38.67;11.52;;;333.60;2329.60;;;;;;4884841;29;20062;-86
2022/05/11 03:12:50;;;;;;;15.93;9.02;;;333.70;2329.60;;;;;;4880339;29;20097;-86
2022/05/11 03:15:21;;;;;;;15.65;9.75;;;333.70;2329.60;;;;;;4894780;29;20055;-85
2022/05/11 03:17:49;;;;;;;14.23;9.27;;;333.70;2329.60;;;;;;4885105;29;20049;-87
2022/05/11 03:20:21;;;;;;;11.25;9.05;;;333.60;2329.60;;;;;;4884069;29;20487;-85
2022/05/11 03:22:50;;;;;;;13.30;8.93;;;333.60;2329.60;;;;;;4884466;29;20123;-86
2022/05/11 03:25:17;;;;;;;16.70;9.80;;;333.40;2329.60;;;;;;4884422;29;20037;-86
2022/05/11 03:27:46;;;;;;;14.70;9.30;;;333.40;2329.60;;;;;;4916264;29;20482;-86
2022/05/11 03:30:14;;;;;;;14.88;9.60;;;358.50;2329.60;;;;;;4902637;29;20506;-84
2022/05/11 03:35:51;;;;;;;14.88;9.55;;;333.50;2329.60;;;;;;4900985;29;20502;-88
2022/05/11 03:38:30;;;;;;;15.63;10.02;;;333.40;2329.60;;;;;;4910079;29;20053;-86
2022/05/11 03:40:58;;;;;;;20.17;10.38;;;333.30;2329.60;;;;;;4884177;29;20032;-84
2022/05/11 03:43:25;;;;;;;15.77;10.13;;;333.30;2329.60;;;;;;4900987;29;20041;-87
2022/05/11 03:46:55;;;;;;;17.77;9.50;;;333.10;2329.60;;;;;;4883966;29;20056;-83
2022/05/11 03:49:05;;;;;;;16.60;9.98;;;333.20;2329.60;;;;;;4895449;29;20476;-85
2022/05/11 03:52:06;;;;;;;12.93;9.40;;;333.20;2329.60;;;;;;4883845;29;20033;-86
2022/05/11 03:55:31;;;;;;;15.07;9.13;;;333.20;2329.60;;;;;;4882299;29;20180;-88
2022/05/11 04:10:54;;;;;;;14.85;9.63;;;333.20;2329.60;;;;;;4884159;29;20051;-87
2022/05/11 04:13:42;;;;;;;16.05;9.63;;;333.20;2329.60;;;;;;4893688;29;20527;-85
2022/05/11 04:16:09;;;;;;;13.82;10.13;;;333.20;2329.60;;;;;;4889881;29;20056;-86
2022/05/11 04:18:39;;;;;;;12.73;9.63;;;332.90;2329.60;;;;;;4902407;29;20025;-87
2022/05/11 04:21:08;;;;;;;15.05;10.23;;;333.20;2329.60;;;;;;4893855;29;20048;-85
2022/05/11 04:33:29;;;;;;;13.85;9.13;;;333.20;2329.60;;;;;;4919221;29;20079;-86
2022/05/11 04:36:24;;;;;;;;;;;;;;;;;;;;;
2022/05/11 04:39:25;;;;;;;11.95;9.55;;;333.20;2329.60;;;;;;4904802;29;20051;-85
2022/05/11 04:58:29;;;;;;;15.73;10.88;;;333.20;2329.60;;;;;;4918561;29;20063;-86
2022/05/11 05:01:09;;;;;;;17.33;10.18;;;333.30;2329.60;;;;;;4914419;29;20029;-86
2022/05/11 05:03:35;;;;;;;18.17;11.57;;;333.30;2329.60;;;;;;4886145;29;20394;-87
2022/05/11 05:06:01;;;;;;;17.77;11.13;;;333.30;2329.60;;;;;;4900956;29;20474;-85
2022/05/11 05:08:35;;;;;;;20.00;10.52;;;358.50;2329.60;;;;;;4901337;29;20533;-87
2022/05/11 05:11:04;;;;;;;19.10;10.90;;;333.50;2329.60;;;;;;4902834;29;20390;-86
2022/05/11 05:13:30;;;;;;;14.77;10.10;;;333.60;2329.60;;;;;;4901166;29;20031;-84
2022/05/11 05:15:57;;;;;;;17.42;10.25;;;358.60;2329.60;;;;;;4901574;29;20064;-85
2022/05/11 05:18:23;;;;;;;20.02;9.77;;;333.60;2329.60;;;;;;4886375;29;20036;-87
2022/05/11 05:20:57;;;;;;;15.05;9.63;;;333.70;2329.60;;;;;;4901087;29;20032;-86
2022/05/11 05:23:23;;;;;;;12.23;9.60;;;358.40;2329.60;;;;;;4901872;29;20043;-86
2022/05/11 05:25:52;;;;;;;17.25;10.98;;;358.40;2329.60;;;;;;4901415;29;20455;-84
2022/05/11 05:31:06;;;;;;;14.82;9.88;;;358.70;2329.60;;;;;;4918322;29;20087;-86
2022/05/11 05:33:47;;;;;;;15.98;9.60;;;358.70;2329.60;;;;;;4901347;29;20390;-85
2022/05/11 05:36:45;;;;;;;15.82;10.18;;;358.80;2329.60;;;;;;4900680;29;20103;-88
2022/05/11 05:39:11;;;;;;;23.27;12.20;;;358.90;2329.60;;;;;;4916611;29;20025;-86
2022/05/11 05:41:37;;;;;;;17.45;10.55;;;358.90;2329.60;;;;;;4901371;29;20379;-86
2022/05/11 05:44:06;;;;;;;16.13;9.68;;;359.00;2329.60;;;;;;4901235;29;20028;-83
2022/05/11 05:46:41;;;;;;;15.05;10.38;;;359.10;2329.60;;;;;;4901243;29;20024;-86
2022/05/11 05:49:07;;;;;;;22.45;10.60;;;359.10;2329.60;;;;;;4901063;29;20039;-85
2022/05/11 05:51:36;;;;;;;19.35;9.63;;;359.10;2329.60;;;;;;4900747;29;20036;-87
2022/05/11 05:54:02;;;;;;;11.25;8.50;;;359.20;2329.60;;;;;;4901058;29;20032;-85
2022/05/11 05:56:28;;;;;;;15.40;9.27;;;359.30;2329.60;;;;;;4900812;29;20036;-88
2022/05/11 05:59:01;;;;;;;14.48;8.80;;;384.10;2329.60;;;;;;4885437;29;20032;-85
2022/05/11 06:01:27;;;;;;;19.10;9.93;;;384.20;2329.60;;;;;;4900718;29;20371;-85
2022/05/11 06:03:54;;;;;;;13.75;9.18;;;384.40;2329.60;;;;;;4917652;29;20426;-85
2022/05/11 06:06:21;;;;;;;18.98;8.52;;;384.50;2329.60;;;;;;4900474;29;20385;-87
2022/05/11 06:08:47;;;;;;;11.48;8.73;;;384.70;2329.60;;;;;;4900752;29;20039;-85
2022/05/11 06:11:13;;;;;;;10.32;7.70;;;384.80;2329.60;;;;;;4900366;29;20028;-87
2022/05/11 06:13:41;;;;;;;9.77;7.88;;;384.70;2329.60;;;;;;4900815;29;20028;-86
2022/05/11 06:16:26;;;;;;;12.20;7.70;;;384.90;2329.60;;;;;;4904821;29;20028;-85
2022/05/11 06:18:53;;;;;;;13.77;8.40;;;409.70;2355.20;;;;;;4911225;29;20028;-85
2022/05/11 06:21:22;;;;;;;13.77;8.27;;;409.90;2355.20;;;;;;4898804;29;20096;-86
2022/05/11 06:23:48;;;;;;;10.48;8.07;;;410.00;2355.20;;;;;;4897381;29;20033;-87
2022/05/11 06:26:16;;;;;;;13.18;8.50;;;410.00;2355.20;;;;;;4897129;29;20149;-87
2022/05/11 06:28:43;;;;;;;9.32;7.25;;;410.20;2355.20;;;;;;4881834;29;20479;-85
2022/05/11 06:31:14;;;;;;;9.88;7.45;;;410.50;2355.20;;;;;;4896516;29;20040;-85
2022/05/11 06:33:40;;;;;;;10.57;7.50;;;435.30;2355.20;;;;;;4882000;29;20033;-88
2022/05/11 06:36:08;;;;;;;10.55;7.22;;;435.60;2355.20;;;;;;4896895;29;20107;-85
2022/05/11 06:38:35;;;;;;;14.88;7.95;;;435.60;2355.20;;;;;;4881849;29;20441;-86
2022/05/11 06:41:16;;;;;;;11.18;7.68;;;435.50;2355.20;;;;;;4897311;29;20088;-85
2022/05/11 06:43:43;;;;;;;13.18;8.57;;;435.70;2355.20;;;;;;4897721;29;20085;-87
2022/05/11 06:46:08;;;;;;;15.52;8.85;;;435.80;2355.20;;;;;;4896867;29;20041;-87
2022/05/11 06:48:34;;;;;;;11.30;7.35;;;436.10;2355.20;;;;;;4903363;29;20049;-85
2022/05/11 06:51:00;;;;;;;13.77;8.52;;;460.90;2380.80;;;;;;4915661;29;20045;-85
2022/05/11 06:53:26;;;;;;;14.98;8.07;;;460.90;2380.80;;;;;;4887667;29;20016;-86
2022/05/11 07:01:21;;;;;;;9.93;7.55;;;461.40;2380.80;;;;;;4880694;29;20047;-87
2022/05/11 07:03:46;;;;;;;13.32;8.20;;;461.60;2380.80;;;;;;4864154;29;20040;-86
2022/05/11 07:06:12;;;;;;;18.75;12.90;;;461.70;2380.80;;;;;;4865101;29;20029;-87
2022/05/11 07:08:40;;;;;;;13.00;8.68;;;486.50;2380.80;;;;;;4864015;29;20116;-87
2022/05/11 07:13:53;;;;;;;13.50;7.75;;;486.70;2380.80;;;;;;4880111;29;20120;-85
2022/05/11 07:16:19;;;;;;;11.10;7.50;;;486.80;2380.80;;;;;;4865328;29;20033;-81
2022/05/11 07:18:45;;;;;;;13.60;8.43;;;486.90;2380.80;;;;;;4903279;29;20046;-84
2022/05/11 07:21:11;;;;;;;12.10;7.55;;;487.00;2380.80;;;;;;4882625;29;20053;-83
2022/05/11 07:23:37;;;;;;;12.52;8.07;;;487.00;2380.80;;;;;;4900543;29;20475;-83
2022/05/11 07:26:03;;;;;;;20.58;8.30;;;487.10;2380.80;;;;;;4898197;29;20025;-82
2022/05/11 07:28:29;;;;;;;11.23;7.97;;;487.20;2380.80;;;;;;4897550;29;20032;-83
2022/05/11 07:30:55;;;;;;;11.48;7.90;;;487.30;2380.80;;;;;;4896846;29;20040;-80
2022/05/11 07:33:21;;;;;;;11.90;7.95;;;512.10;2380.80;;;;;;4901023;29;20032;-79
2022/05/11 07:35:47;;;;;;;12.68;7.68;;;512.10;2380.80;;;;;;4899465;29;20073;-80
2022/05/11 07:38:17;;;;;;;13.32;8.13;;;512.40;2380.80;;;;;;4900119;29;20032;-80
2022/05/11 07:40:44;;;;;;;13.38;8.52;;;512.20;2355.20;;;;;;4900064;29;20117;-80
2022/05/11 07:43:10;;;;;;;12.55;8.40;;;512.50;2355.20;;;;;;4884437;29;20471;-78
2022/05/11 07:45:37;;;;;;;16.00;9.10;;;512.70;2329.60;;;;;;4883498;29;20395;-78
2022/05/11 07:48:03;;;;;;;13.98;7.90;;;512.80;2304.00;;;;;;4899538;29;20539;-77
2022/05/11 07:50:31;;;;;;;12.88;8.25;;;512.80;2278.40;;;;;;4897710;29;20475;-79
2022/05/11 07:52:57;;;;;;;12.20;7.93;;;537.60;2304.00;;;;;;4901182;29;20032;-77
2022/05/11 07:55:27;;;;;;;11.98;8.27;;;512.80;2278.40;;;;;;4917600;29;20695;-79
2022/05/11 08:00:40;;;;;;;15.60;8.95;;;512.90;2252.80;;;;;;4919372;29;20087;-78
2022/05/11 08:03:08;;;;;;;12.40;7.75;;;537.60;2278.40;;;;;;4918163;29;20457;-80
2022/05/11 08:05:34;;;;;;;9.98;7.30;;;538.10;2252.80;;;;;;4917501;29;20039;-78
2022/05/11 08:08:05;;;;;;;11.93;7.22;;;538.00;2227.20;;;;;;4902128;29;20036;-78
2022/05/11 08:10:34;;;;;;;13.88;8.68;;;538.30;2252.80;;;;;;4917474;29;20043;-78
2022/05/11 08:13:05;;;;;;;12.43;8.05;;;563.30;2227.20;;;;;;4918571;29;20119;-82
2022/05/11 08:15:32;;;;;;;14.63;8.40;;;538.50;2176.00;;;;;;4918303;29;20028;-79
2022/05/11 08:17:59;;;;;;;13.95;7.45;;;563.40;2201.60;;;;;;4918595;29;20024;-82
2022/05/11 08:20:28;;;;;;;13.57;8.13;;;563.50;2201.60;;;;;;4916564;29;20028;-82
2022/05/11 08:22:55;;;;;;;17.40;8.18;;;563.20;2201.60;;;;;;4902199;29;20072;-82
2022/05/11 08:25:25;;;;;;;9.05;7.50;;;538.40;2201.60;;;;;;4902277;29;20024;-79
2022/05/11 08:27:52;;;;;;;12.38;7.45;;;538.50;2201.60;;;;;;4865655;29;20025;-80
2022/05/11 08:33:26;;;;;;;14.05;7.93;;;563.70;2176.00;;;;;;4900523;29;20043;-82
2022/05/11 08:36:14;;;;;;;10.65;6.80;;;563.80;2176.00;;;;;;4883561;29;20025;-84
2022/05/11 08:38:43;;;;;;;11.93;7.18;;;564.10;2150.40;;;;;;4883469;29;20028;-85
2022/05/11 08:41:34;;;;;;;14.07;7.80;;;588.80;2150.40;;;;;;4883585;29;20043;-83
2022/05/11 08:44:24;;;;;;;12.43;7.63;;;589.00;2099.20;;;;;;4897322;29;20178;-81
2022/05/11 08:47:04;;;;;;;10.63;7.50;;;589.40;2099.20;;;;;;4899978;29;20092;-80
2022/05/11 08:49:44;;;;;;;14.55;11.18;;;589.70;2073.60;;;;;;4883318;29;20360;-80
2022/05/11 08:52:50;;;;;;;14.88;8.02;;;589.40;2073.60;;;;;;4879463;29;20044;-79
2022/05/11 09:24:17;;;;;;;7.70;6.25;;;640.60;1868.80;;;;;;5111153;27;20714;-81
2022/05/11 09:26:46;;;;;;;8.75;6.15;;;665.70;1817.60;;;;;;5093520;28;20067;-81
2022/05/11 09:29:31;;;;;;;8.77;6.78;;;640.90;1817.60;;;;;;5093238;28;20357;-80
2022/05/11 09:32:18;;;;;;;10.82;6.75;;;665.60;1868.80;;;;;;5093307;28;20027;-81
2022/05/11 09:34:44;;;;;;;10.98;6.50;;;665.70;1843.20;;;;;;5093500;28;20057;-78
2022/05/11 09:37:34;;;;;;;7.60;5.50;;;666.00;1817.60;;;;;;5093933;28;20404;-80
2022/05/11 09:40:20;;;;;;;9.63;5.90;;;666.00;1817.60;;;;;;5094757;28;20023;-81
2022/05/11 09:42:57;;;;;;;8.35;5.40;;;665.90;1817.60;;;;;;5113154;28;20023;-81
2022/05/11 09:45:47;;;;;;;6.30;4.85;;;665.60;1817.60;;;;;;5095458;28;20024;-82
2022/05/11 09:48:21;;;;;;;8.52;6.20;;;666.10;1792.00;;;;;;5094454;28;20028;-82
2022/05/11 09:50:55;;;;;;;7.82;5.43;;;666.50;1792.00;;;;;;5093700;28;20084;-79
2022/05/11 09:53:31;;;;;;;8.48;5.70;;;691.40;1766.40;;;;;;5092570;28;20063;-80
2022/05/11 09:56:18;;;;;;;8.38;6.47;;;691.30;1715.20;;;;;;5092136;28;20380;-77
2022/05/11 09:58:45;;;;;;;8.07;5.82;;;666.50;1715.20;;;;;;5092884;28;20032;-80
2022/05/11 10:01:17;;;;;;;9.05;5.82;;;666.50;1715.20;;;;;;5110752;28;20024;-78
2022/05/11 10:03:55;;;;;;;13.27;9.05;;;666.50;1740.80;;;;;;5092537;28;20043;-79
2022/05/11 10:06:23;;;;;;;7.75;4.88;;;691.50;1715.20;;;;;;5110502;28;20051;-76
2022/05/11 10:08:51;;;;;;;7.28;5.00;;;691.70;1715.20;;;;;;5092280;28;20548;-79
2022/05/11 10:11:23;;;;;;;6.88;5.63;;;691.80;1715.20;;;;;;5110728;28;20062;-78
2022/05/11 10:21:49;;;;;;;10.27;7.22;;;691.80;1715.20;;;;;;5092406;28;20377;-79
2022/05/11 10:22:22;;;;;;;8.85;5.70;;;666.40;1740.80;;;;;;5109858;28;20051;-76
2022/05/11 10:25:14;;;;;;;9.77;5.20;;;666.40;1740.80;;;;;;5080302;28;20024;-79
2022/05/11 10:27:51;;;;;;;15.13;6.03;;;665.60;1740.80;;;;;;5067653;28;20391;-81
2022/05/11 10:30:51;;;;;;;9.43;5.65;;;640.90;1766.40;;;;;;5078863;28;20431;-80
2022/05/11 10:33:31;;;;;;;10.88;5.20;;;665.80;1740.80;;;;;;5091329;28;20127;-81
2022/05/11 10:36:09;;;;;;;8.88;4.90;;;666.50;1689.60;;;;;;5078655;28;20463;-78
2022/05/11 10:39:00;;;;;;;9.82;5.18;;;666.40;1715.20;;;;;;5096391;28;20031;-77
2022/05/11 10:41:43;;;;;;;10.60;4.88;;;666.20;1715.20;;;;;;5078338;28;20077;-79
2022/05/11 10:44:09;;;;;;;7.38;4.55;;;691.20;1715.20;;;;;;5078152;28;20031;-78
2022/05/11 10:46:36;;;;;;;5.78;4.82;;;691.60;1638.40;;;;;;5078631;28;20028;-79
2022/05/11 10:49:16;;;;;;;7.25;4.63;;;691.50;1638.40;;;;;;5079294;28;20035;-79
2022/05/11 10:52:01;;;;;;;7.65;4.10;;;691.40;1638.40;;;;;;5096426;28;20476;-79
2022/05/11 10:55:05;;;;;;;5.75;4.65;;;691.40;1638.40;;;;;;5078677;28;20553;-77
2022/05/11 10:58:10;;;;;;;10.90;5.93;;;691.20;1664.00;;;;;;5040046;28;20038;-79
2022/05/11 11:00:46;;;;;;;8.85;5.25;;;691.60;1664.00;;;;;;5075436;28;20043;-79
2022/05/11 11:03:29;;;;;;;7.18;5.65;;;716.80;1664.00;;;;;;5078015;28;20503;-78
2022/05/11 11:09:04;;;;;;;7.07;4.25;;;717.30;1587.20;;;;;;5095836;28;20081;-79
2022/05/11 11:11:42;;;;;;;8.35;4.78;;;716.80;1587.20;;;;;;5077319;28;20063;-79
2022/05/11 11:14:10;;;;;;;6.32;4.65;;;691.90;1561.60;;;;;;5077724;28;20059;-80
2022/05/11 11:16:39;;;;;;;6.50;4.43;;;691.60;1612.80;;;;;;5077809;28;20372;-77
2022/05/11 11:19:08;;;;;;;4.88;3.83;;;666.40;1612.80;;;;;;5077387;28;20074;-77
2022/05/11 11:21:39;;;;;;;7.35;4.15;;;666.20;1612.80;;;;;;5079246;28;20020;-79
2022/05/11 11:24:22;;;;;;;9.38;4.97;;;666.30;1638.40;;;;;;5077503;28;20481;-78
2022/05/11 11:27:03;;;;;;;8.23;4.75;;;666.20;1689.60;;;;;;5095779;28;20114;-78
2022/05/11 11:29:31;;;;;;;6.82;4.80;;;691.30;1612.80;;;;;;5077291;28;20518;-79
2022/05/11 11:31:58;;;;;;;6.28;4.50;;;691.60;1638.40;;;;;;5077379;28;20052;-78
2022/05/11 11:34:43;;;;;;;6.85;5.00;;;691.40;1612.80;;;;;;5077282;28;20059;-79
2022/05/11 11:37:27;;;;;;;6.50;4.85;;;691.60;1612.80;;;;;;5076642;28;20020;-79
2022/05/11 11:39:54;;;;;;;7.57;4.97;;;691.70;1612.80;;;;;;5076912;28;20016;-77
2022/05/11 11:42:34;;;;;;;8.30;5.07;;;691.90;1612.80;;;;;;5077280;28;20032;-78
2022/05/11 11:45:01;;;;;;;8.35;4.25;;;692.00;1612.80;;;;;;5077111;28;20488;-79
2022/05/11 11:47:27;;;;;;;6.88;3.95;;;717.00;1587.20;;;;;;5076712;28;20025;-78
2022/05/11 11:49:58;;;;;;;7.03;4.72;;;716.80;1587.20;;;;;;5076866;28;20055;-79
2022/05/11 11:52:36;;;;;;;5.95;4.03;;;692.10;1587.20;;;;;;5076690;28;20495;-78
2022/05/11 11:55:18;;;;;;;6.70;3.35;;;691.70;1561.60;;;;;;5076168;28;20123;-76
2022/05/11 11:57:47;;;;;;;8.52;4.28;;;691.30;1561.60;;;;;;5095218;28;20035;-77
2022/05/11 12:00:31;;;;;;;6.32;4.28;;;666.50;1587.20;;;;;;5076472;28;20481;-77
2022/05/11 12:02:59;;;;;;;5.60;3.88;;;666.50;1612.80;;;;;;5076539;28;20027;-76
2022/05/11 12:05:45;;;;;;;8.65;5.82;;;691.20;1612.80;;;;;;5076953;28;20024;-76
2022/05/11 12:16:59;;;;;;;7.78;5.65;;;717.10;1561.60;;;;;;5094814;28;20039;-79
2022/05/11 12:19:31;;;;;;;5.70;4.28;;;717.40;1536.00;;;;;;5076409;28;20023;-76
2022/05/11 12:22:02;;;;;;;8.10;4.80;;;717.30;1561.60;;;;;;5075721;28;20024;-79
2022/05/11 12:24:37;;;;;;;6.28;5.32;;;717.20;1561.60;;;;;;5076474;28;20120;-77
2022/05/11 12:27:12;;;;;;;8.63;4.40;;;717.70;1561.60;;;;;;5076089;28;20028;-79
2022/05/11 12:29:58;;;;;;;7.88;5.78;;;742.50;1561.60;;;;;;5075867;28;20427;-78
2022/05/11 12:32:26;;;;;;;6.47;4.35;;;742.70;1561.60;;;;;;5076285;28;20038;-78
2022/05/11 12:34:52;;;;;;;6.63;4.00;;;742.80;1561.60;;;;;;5075941;28;20028;-77
2022/05/11 12:37:23;;;;;;;6.25;4.13;;;742.80;1536.00;;;;;;5093641;28;20035;-77
2022/05/11 12:40:18;;;;;;;7.90;4.93;;;742.90;1536.00;;;;;;5093839;28;20046;-80
2022/05/11 12:42:51;;;;;;;7.75;5.20;;;742.90;1536.00;;;;;;5072617;28;20050;-79
2022/05/11 12:45:25;;;;;;;5.80;4.05;;;742.90;1536.00;;;;;;5075976;28;20031;-79
2022/05/11 12:47:56;;;;;;;6.95;4.82;;;743.20;1561.60;;;;;;5075837;28;20024;-78
2022/05/11 12:50:29;;;;;;;9.13;3.95;;;768.20;1536.00;;;;;;5093621;28;20030;-78
2022/05/11 12:53:17;;;;;;;4.90;4.00;;;768.50;1536.00;;;;;;5093427;28;20035;-77
2022/05/11 12:55:53;;;;;;;5.78;3.35;;;768.60;1459.20;;;;;;5074543;28;20032;-79
2022/05/11 12:58:25;;;;;;;5.57;4.00;;;768.50;1484.80;;;;;;5093217;28;20481;-77
2022/05/11 13:01:00;;;;;;;7.70;5.13;;;768.30;1484.80;;;;;;5075541;28;20024;-76
2022/05/11 13:03:33;;;;;;;8.90;4.70;;;768.20;1459.20;;;;;;5093399;28;20074;-77
2022/05/11 13:06:03;;;;;;;6.45;4.03;;;768.10;1459.20;;;;;;5075534;28;20028;-76
2022/05/11 13:08:45;;;;;;;6.78;5.18;;;768.30;1459.20;;;;;;5074466;28;20077;-79
2022/05/11 13:11:17;;;;;;;6.93;4.00;;;768.10;1433.60;;;;;;5079196;28;20026;-76
2022/05/11 13:13:46;;;;;;;6.95;3.58;;;743.30;1433.60;;;;;;5093700;28;20358;-79
2022/05/11 13:16:20;;;;;;;8.75;5.68;;;743.30;1484.80;;;;;;5073907;28;20542;-77
2022/05/11 13:18:47;;;;;;;8.20;5.50;;;768.60;1433.60;;;;;;5075165;28;20370;-78
2022/05/11 13:21:14;;;;;;;7.88;4.10;;;768.60;1459.20;;;;;;5061614;28;20380;-82
2022/05/11 13:23:50;;;;;;;12.32;8.60;;;768.30;1433.60;;;;;;5075218;28;20135;-77
2022/05/11 13:27:00;;;;;;;8.73;4.97;;;768.60;1433.60;;;;;;5075204;28;20519;-77
2022/05/11 13:29:27;;;;;;;9.25;4.55;;;768.00;1459.20;;;;;;5071144;28;20127;-78
2022/05/11 13:32:09;;;;;;;7.32;4.82;;;742.90;1484.80;;;;;;5075320;28;20063;-76
2022/05/11 13:34:37;;;;;;;;;;;742.60;1510.40;;;;;;5075859;28;20028;-77
2022/05/11 13:37:04;;;;;;;6.65;3.92;;;742.50;1510.40;;;;;;5075598;28;20006;-77
2022/05/11 13:39:35;;;;;;;4.95;2.90;;;742.40;1484.80;;;;;;5076333;28;20028;-77
2022/05/11 13:42:22;;;;;;;6.90;4.53;;;742.40;1510.40;;;;;;5076206;28;20465;-78
2022/05/11 13:44:56;;;;;;;5.53;3.83;;;742.80;1484.80;;;;;;5077507;28;20576;-77
2022/05/11 13:50:16;;;;;;;6.72;3.33;;;717.70;1484.80;;;;;;5093991;28;20069;-78
2022/05/11 13:53:11;;;;;;;4.50;2.90;;;717.40;1484.80;;;;;;5075228;28;20122;-79
2022/05/11 13:55:40;;;;;;;4.93;3.10;;;717.20;1510.40;;;;;;5047036;28;20072;-77
2022/05/11 13:58:31;;;;;;;5.63;2.92;;;717.20;1510.40;;;;;;5093255;28;20020;-78
2022/05/11 14:01:07;;;;;;;7.32;3.25;;;717.40;1510.40;;;;;;5078937;28;20031;-77
2022/05/11 14:03:39;;;;;;;5.03;2.78;;;717.10;1484.80;;;;;;5097658;28;20060;-77
2022/05/11 14:06:10;;;;;;;6.38;3.30;;;717.20;1484.80;;;;;;5079122;28;20119;-79
2022/05/11 14:08:36;;;;;;;5.38;3.08;;;742.40;1510.40;;;;;;5097031;28;20078;-77
2022/05/11 14:11:02;;;;;;;8.75;4.65;;;742.60;1484.80;;;;;;5078739;28;20024;-78
2022/05/11 14:13:28;;;;;;;7.15;5.03;;;743.00;1484.80;;;;;;5078551;28;20036;-78
2022/05/11 14:15:53;;;;;;;6.38;3.20;;;743.30;1484.80;;;;;;5097136;28;20387;-79
2022/05/11 14:18:21;;;;;;;6.32;3.05;;;768.10;1433.60;;;;;;5078954;28;20028;-78
2022/05/11 14:20:48;;;;;;;5.10;2.97;;;768.30;1433.60;;;;;;5078768;28;20469;-79
2022/05/11 14:23:14;;;;;;;6.45;3.10;;;768.50;1433.60;;;;;;5096977;28;20373;-78
2022/05/11 14:25:40;;;;;;;4.25;3.03;;;768.80;1433.60;;;;;;5078612;28;20024;-79
2022/05/11 14:28:06;;;;;;;8.60;3.20;;;768.60;1433.60;;;;;;5078355;28;20362;-79
2022/05/11 14:30:34;;;;;;;4.20;2.90;;;768.50;1408.00;;;;;;5079127;28;20085;-79
2022/05/11 14:33:01;;;;;;;5.00;2.83;;;768.60;1408.00;;;;;;5078596;28;20066;-78
2022/05/11 14:35:28;;;;;;;4.53;2.72;;;768.60;1408.00;;;;;;5078045;28;20030;-78
2022/05/11 14:37:54;;;;;;;10.07;7.15;;;768.80;1408.00;;;;;;5096690;28;20028;-78
2022/05/11 14:40:24;;;;;;;8.18;5.53;;;768.90;1382.40;;;;;;5097162;28;20077;-78
2022/05/11 14:42:50;;;;;;;6.00;4.60;;;768.80;1356.80;;;;;;5097335;28;20027;-80
2022/05/11 14:45:16;;;;;;;11.77;5.97;;;768.70;1356.80;;;;;;5078621;28;20130;-79
2022/05/11 14:47:46;;;;;;;8.48;4.53;;;768.80;1382.40;;;;;;5096692;28;20030;-80
2022/05/11 14:50:20;;;;;;;11.07;4.65;;;768.90;1382.40;;;;;;5085140;28;20020;-77
2022/05/11 14:52:50;;;;;;;12.30;4.95;;;768.90;1382.40;;;;;;5078784;28;20035;-79
2022/05/11 14:55:17;;;;;;;9.65;4.80;;;793.60;1408.00;;;;;;5078419;28;20031;-81
2022/05/11 15:03:12;;;;;;;6.78;3.55;;;793.60;1408.00;;;;;;5095226;28;20108;-79
2022/05/11 15:05:38;;;;;;;6.47;4.15;;;793.70;1408.00;;;;;;5097167;28;20078;-80
2022/05/11 15:08:05;;;;;;;9.32;5.47;;;793.60;1408.00;;;;;;5079155;28;20532;-79